map of JCI home
JCI - Airport
Location
City:  Olathe, Kansas, United States
Name:New Century Aircenter Airport
ICAO:KIXD
IATA:JCI
FAA LID:IXD

Details
Type:Airport (Airfield)
Use:Public/Civil
Latitude:3849'51"N (38.830917)
Longitude:9453'25"W (-94.890305)
Datum:WGS 1984
Elevation:1087 ft (331 m)
Variation:1.81E (WMM2015v2 magnetic declination)
-0.08 annual change
Runways:2
Longest:7339 × 150 ft (2237 × 45.5 m), paved

Time
Time Zone:UTC-6 (DST-5)
Local Time:

Weather
METAR:KIXD 041401Z 33021G29KT 7SM OVC006 M01/M01 A2981 RMK AO2 PK WND 33029/1401 CIG 004V008 T10061011
TAF:KIXD 041134Z 0412/0512 34012G24KT P6SM VCSH SCT008 BKN015
TEMPO 0413/0415 3SM SHRA OVC008
FM042100 01011KT P6SM SCT030

Related Locations
Nearby:
Farthest:YAUG: 10751 mi / 17302 km
Augusta [Augusta Airport], WA, AU

Find:

   beyond  
but within

Other Information
Maps:
NOTAMs:
Links:
Sources:

  
  • flag of United States
  • flag of Kansas
  

Airport Diagram

Airport diagram for JCI

Airport diagram PDF from FAA

Sectional Chart

Flight Planning
at skyvector.com

Satellite Image

Google Maps Satellite view

 

Copyright © 2004-2019 Karl L. Swartz. All rights reserved.
The Great Circle Mapper name and logo are trademarks of the Great Circle Mapper.
All other trademarks mentioned herein belong to their respective owners.
Please see credits for attibutions and further copyright information.

  Follow gcmap on Facebook Follow gcmap on Twitter GCmap on LinkedIn

hCard Microformat

Geo Microformat